Time;durP1;ratioP1;P1;durP2;ratioP2;P2;SDS_P1;SDS_P2;PMS_P1;PMS_P2;Temp;Humidity;BMP_temperature;BMP_pressure;BME280_temperature;BME280_humidity;BME280_pressure;Samples;Min_cycle;Max_cycle;Signal;HPM_P1;HPM_P2
2023/03/23 00:00:08;;;;;;;2.97;1.40;;;14.20;99.90;;;;;;6216061;23;20418;-85
2023/03/23 00:02:37;;;;;;;4.20;1.50;;;14.20;99.90;;;;;;6240460;23;20171;-84
2023/03/23 00:05:07;;;;;;;1.93;0.80;;;14.20;99.90;;;;;;6212848;23;20376;-84
2023/03/23 00:07:34;;;;;;;1.87;1.50;;;14.20;99.90;;;;;;6208859;23;20384;-84
2023/03/23 00:10:02;;;;;;;2.17;0.80;;;14.20;99.90;;;;;;6209690;23;20786;-83
2023/03/23 00:12:33;;;;;;;2.73;1.00;;;14.30;99.90;;;;;;6238024;23;20445;-83
2023/03/23 00:15:00;;;;;;;1.17;0.70;;;14.20;99.90;;;;;;6210646;23;20379;-84
2023/03/23 00:17:27;;;;;;;2.30;1.13;;;14.30;99.90;;;;;;6212111;23;20423;-83
2023/03/23 00:19:53;;;;;;;3.60;1.33;;;14.30;99.90;;;;;;6240273;23;20514;-84
2023/03/23 00:22:21;;;;;;;3.70;1.13;;;14.20;99.90;;;;;;6217015;23;20383;-83
2023/03/23 00:24:48;;;;;;;1.77;1.10;;;14.10;99.90;;;;;;6240279;23;20144;-83
2023/03/23 00:27:14;;;;;;;1.20;0.90;;;14.20;99.90;;;;;;6214899;23;20410;-83
2023/03/23 00:29:40;;;;;;;5.33;1.03;;;14.30;99.90;;;;;;6211468;23;20399;-82
2023/03/23 00:32:06;;;;;;;2.50;1.20;;;14.30;99.90;;;;;;6211029;23;20407;-83
2023/03/23 00:34:33;;;;;;;1.90;1.10;;;14.40;99.90;;;;;;6234933;23;20402;-85
2023/03/23 00:36:59;;;;;;;1.10;1.00;;;14.30;99.90;;;;;;6234744;23;20430;-82
2023/03/23 00:39:27;;;;;;;2.20;1.00;;;14.30;99.90;;;;;;6239070;23;20399;-84
2023/03/23 00:42:00;;;;;;;1.40;0.90;;;14.30;99.90;;;;;;6237603;23;20378;-83
2023/03/23 00:44:28;;;;;;;1.93;1.33;;;14.20;99.90;;;;;;6238071;23;20395;-83
2023/03/23 00:46:56;;;;;;;3.93;2.30;;;14.20;99.90;;;;;;6238879;23;20466;-84
2023/03/23 00:49:24;;;;;;;7.20;2.00;;;14.30;99.90;;;;;;6236820;23;20407;-83
2023/03/23 00:51:51;;;;;;;5.93;1.43;;;14.30;99.90;;;;;;6240055;23;20380;-83
2023/03/23 00:54:16;;;;;;;1.73;1.10;;;14.20;99.90;;;;;;6239489;23;20380;-83
2023/03/23 00:56:42;;;;;;;2.30;1.37;;;14.20;99.90;;;;;;6237704;23;20768;-83
2023/03/23 00:59:08;;;;;;;4.20;1.67;;;14.20;99.90;;;;;;6234349;23;20333;-84
2023/03/23 01:01:34;;;;;;;2.30;1.17;;;14.20;99.90;;;;;;6250057;23;20168;-83
2023/03/23 01:04:00;;;;;;;2.17;1.33;;;14.30;99.90;;;;;;6247405;23;20411;-84
2023/03/23 01:06:28;;;;;;;2.03;1.40;;;14.30;99.90;;;;;;6238063;23;20379;-85
2023/03/23 01:08:54;;;;;;;2.37;2.10;;;14.30;99.90;;;;;;6240917;23;20455;-83
2023/03/23 01:11:20;;;;;;;3.63;2.00;;;14.30;99.90;;;;;;6248640;23;20382;-85
2023/03/23 01:13:45;;;;;;;2.53;1.07;;;14.30;99.90;;;;;;6241215;23;20144;-85
2023/03/23 01:16:12;;;;;;;3.63;2.17;;;14.40;99.90;;;;;;6236549;23;20434;-85
2023/03/23 01:18:39;;;;;;;2.10;1.20;;;14.40;99.90;;;;;;6242880;23;20151;-85
2023/03/23 01:21:07;;;;;;;1.03;0.90;;;14.40;99.90;;;;;;6241249;23;20399;-86
2023/03/23 01:23:34;;;;;;;2.80;1.20;;;14.40;99.90;;;;;;6239114;23;20388;-85
2023/03/23 01:26:07;;;;;;;1.77;0.90;;;14.40;99.90;;;;;;6237750;23;20387;-86
2023/03/23 01:28:34;;;;;;;1.70;1.17;;;14.40;99.90;;;;;;6239926;23;20445;-84
2023/03/23 01:31:05;;;;;;;2.83;0.90;;;14.30;99.90;;;;;;6234975;23;20403;-84
2023/03/23 01:33:32;;;;;;;1.50;1.40;;;14.30;99.90;;;;;;6233680;23;20407;-84
2023/03/23 01:36:01;;;;;;;1.67;1.40;;;14.20;99.90;;;;;;6234655;23;20398;-83
2023/03/23 01:38:27;;;;;;;1.97;1.30;;;14.20;99.90;;;;;;6235019;23;20482;-84
2023/03/23 01:40:53;;;;;;;1.50;1.20;;;14.10;99.90;;;;;;6236314;23;20438;-84
2023/03/23 01:43:18;;;;;;;2.77;1.67;;;14.10;99.90;;;;;;6238384;23;20152;-84
2023/03/23 01:45:44;;;;;;;2.23;1.10;;;14.00;99.90;;;;;;6236867;23;20148;-84
2023/03/23 01:48:18;;;;;;;1.70;1.53;;;14.00;99.90;;;;;;6240371;23;20159;-84
2023/03/23 01:50:47;;;;;;;1.90;1.20;;;13.90;99.90;;;;;;6240836;23;20168;-85
2023/03/23 01:53:13;;;;;;;5.27;2.63;;;13.90;99.90;;;;;;6240942;23;20385;-84
2023/03/23 01:55:41;;;;;;;1.20;0.90;;;13.90;99.90;;;;;;6238552;23;20414;-84
2023/03/23 01:58:07;;;;;;;3.63;1.13;;;13.90;99.90;;;;;;6238181;23;20422;-84
2023/03/23 02:00:34;;;;;;;4.03;1.50;;;13.90;99.90;;;;;;6236833;23;20719;-85
2023/03/23 02:03:01;;;;;;;6.30;1.77;;;13.90;99.90;;;;;;6237968;23;20403;-83
2023/03/23 02:05:33;;;;;;;11.40;4.43;;;13.80;99.90;;;;;;6233053;23;20801;-84
2023/03/23 02:08:02;;;;;;;1.07;0.80;;;13.80;99.90;;;;;;6237101;23;20355;-84
2023/03/23 02:10:30;;;;;;;2.90;1.53;;;13.80;99.90;;;;;;6236378;23;20866;-84
2023/03/23 02:12:57;;;;;;;3.20;1.17;;;13.70;99.90;;;;;;6241854;23;20356;-84
2023/03/23 02:15:27;;;;;;;2.10;1.33;;;13.60;99.90;;;;;;6251648;23;20144;-84
2023/03/23 02:18:09;;;;;;;1.30;1.03;;;13.60;99.90;;;;;;6236354;23;20446;-84
2023/03/23 02:20:53;;;;;;;7.13;1.60;;;13.60;99.90;;;;;;6237133;23;20395;-85
2023/03/23 02:23:47;;;;;;;2.10;1.67;;;13.60;99.90;;;;;;6245378;22;20478;-84
2023/03/23 02:26:31;;;;;;;1.73;1.40;;;13.60;99.90;;;;;;6255144;23;20351;-85
2023/03/23 02:29:13;;;;;;;3.38;1.20;;;13.60;99.90;;;;;;6243896;23;20466;-85
2023/03/23 02:31:50;;;;;;;3.53;1.63;;;13.70;99.90;;;;;;6237764;23;20467;-84
2023/03/23 02:34:42;;;;;;;2.40;0.90;;;13.70;99.90;;;;;;6236801;23;20398;-84
2023/03/23 02:37:39;;;;;;;1.77;1.30;;;13.70;99.90;;;;;;6239696;23;20419;-84
2023/03/23 02:40:13;;;;;;;2.40;1.50;;;13.70;99.90;;;;;;6231807;22;20484;-84
2023/03/23 02:42:43;;;;;;;2.97;1.33;;;13.60;99.90;;;;;;6241778;23;20350;-85
2023/03/23 02:45:11;;;;;;;2.08;1.17;;;13.70;99.90;;;;;;6236331;23;20479;-84
2023/03/23 02:47:38;;;;;;;2.27;1.47;;;13.80;99.90;;;;;;6240293;23;20211;-85
2023/03/23 02:50:07;;;;;;;5.23;1.10;;;13.70;99.90;;;;;;6240050;23;20505;-84
2023/03/23 02:52:35;;;;;;;3.37;1.60;;;13.70;99.90;;;;;;6239328;23;20387;-84
2023/03/23 02:55:02;;;;;;;3.70;1.50;;;13.70;99.90;;;;;;6238211;23;20873;-84
2023/03/23 02:57:29;;;;;;;5.40;1.70;;;13.70;99.90;;;;;;6238202;23;20427;-85
2023/03/23 02:59:54;;;;;;;2.77;1.73;;;13.70;99.90;;;;;;6238725;23;20388;-84
2023/03/23 03:02:33;;;;;;;2.40;1.53;;;13.70;99.90;;;;;;6236562;23;20387;-84
2023/03/23 03:05:13;;;;;;;2.00;1.17;;;13.70;99.90;;;;;;6240846;23;20228;-85
2023/03/23 03:08:07;;;;;;;3.00;2.70;;;13.70;99.90;;;;;;6239802;23;20728;-85
2023/03/23 03:11:02;;;;;;;1.53;1.23;;;13.70;99.90;;;;;;6240181;23;20384;-85
2023/03/23 03:13:33;;;;;;;1.83;1.47;;;13.60;99.90;;;;;;6239326;23;20352;-85
2023/03/23 03:16:35;;;;;;;2.13;1.40;;;13.70;99.90;;;;;;6241950;23;20411;-84
2023/03/23 03:19:20;;;;;;;1.93;1.20;;;13.70;99.90;;;;;;6238414;22;20473;-85
2023/03/23 03:21:47;;;;;;;3.43;1.20;;;13.70;99.90;;;;;;6238721;23;20379;-85
2023/03/23 03:24:17;;;;;;;5.53;1.80;;;13.70;99.90;;;;;;6239622;23;20375;-85
2023/03/23 03:26:47;;;;;;;1.60;1.30;;;13.70;99.90;;;;;;6241808;23;20991;-85
2023/03/23 03:29:25;;;;;;;7.50;3.13;;;13.70;99.90;;;;;;6236631;23;20406;-84
2023/03/23 03:31:55;;;;;;;8.97;3.83;;;13.70;99.90;;;;;;6242606;23;20462;-85
2023/03/23 03:34:21;;;;;;;3.53;2.10;;;13.60;99.90;;;;;;6245903;23;20390;-84
2023/03/23 03:36:50;;;;;;;4.30;2.30;;;13.70;99.90;;;;;;6218808;23;20545;-85
2023/03/23 03:39:17;;;;;;;9.00;4.60;;;13.60;99.90;;;;;;6244644;23;20415;-84
2023/03/23 03:41:44;;;;;;;6.60;3.30;;;13.70;99.90;;;;;;6243731;23;20846;-85
2023/03/23 03:44:10;;;;;;;5.07;2.30;;;13.60;99.90;;;;;;6215169;23;20147;-84
2023/03/23 03:46:36;;;;;;;3.00;1.60;;;13.70;99.90;;;;;;6212195;23;20379;-84
2023/03/23 03:49:04;;;;;;;2.10;1.37;;;13.60;99.90;;;;;;6239894;23;20391;-83
2023/03/23 03:51:30;;;;;;;7.40;3.00;;;13.60;99.90;;;;;;6214335;23;20383;-85
2023/03/23 03:53:56;;;;;;;4.43;1.90;;;13.60;99.90;;;;;;6214270;23;20407;-85
2023/03/23 03:56:22;;;;;;;2.63;1.30;;;13.60;99.90;;;;;;6214426;23;20375;-85
2023/03/23 03:58:49;;;;;;;6.43;2.37;;;13.60;99.90;;;;;;6213620;23;20190;-84
2023/03/23 04:01:22;;;;;;;4.20;1.20;;;13.60;99.90;;;;;;6213089;23;20858;-83
2023/03/23 04:03:48;;;;;;;3.67;2.15;;;13.60;99.90;;;;;;6210280;23;20464;-86
2023/03/23 04:06:14;;;;;;;3.73;1.40;;;13.60;99.90;;;;;;6209947;23;20172;-85
2023/03/23 04:08:41;;;;;;;3.20;1.70;;;13.60;99.90;;;;;;6235676;23;20467;-85
2023/03/23 04:11:08;;;;;;;3.93;1.70;;;13.70;99.90;;;;;;6222833;23;20466;-85
2023/03/23 04:13:34;;;;;;;3.95;2.30;;;13.70;99.90;;;;;;6244750;23;20390;-84
2023/03/23 04:16:00;;;;;;;4.13;1.70;;;13.70;99.90;;;;;;6215603;23;20638;-85
2023/03/23 04:18:26;;;;;;;7.60;2.40;;;13.70;99.90;;;;;;6212007;23;20422;-85
2023/03/23 04:20:52;;;;;;;4.20;2.00;;;13.70;99.90;;;;;;6212112;23;20171;-85
2023/03/23 04:23:19;;;;;;;2.53;1.23;;;13.70;99.90;;;;;;6206267;23;20392;-85
2023/03/23 04:25:46;;;;;;;3.83;1.43;;;13.80;99.90;;;;;;6238544;23;20364;-85
2023/03/23 04:28:16;;;;;;;4.67;1.67;;;13.80;99.90;;;;;;6213572;23;20384;-86
2023/03/23 04:30:42;;;;;;;6.03;1.63;;;13.80;99.90;;;;;;6211299;23;20453;-85
2023/03/23 04:33:09;;;;;;;2.50;1.70;;;13.80;99.90;;;;;;6215390;23;20407;-86
2023/03/23 04:35:34;;;;;;;2.50;1.60;;;13.90;99.90;;;;;;6237214;23;20375;-85
2023/03/23 04:38:00;;;;;;;2.07;1.47;;;13.90;99.90;;;;;;6233208;23;20902;-85
2023/03/23 04:40:25;;;;;;;2.13;1.37;;;13.80;99.90;;;;;;6234707;23;20168;-85
2023/03/23 04:42:51;;;;;;;3.37;1.53;;;13.80;99.90;;;;;;6242871;23;20183;-84
2023/03/23 04:45:21;;;;;;;2.30;1.13;;;13.80;99.90;;;;;;6247665;23;20467;-85
2023/03/23 04:47:52;;;;;;;1.43;1.33;;;13.80;99.90;;;;;;6245989;23;20375;-85
2023/03/23 04:50:21;;;;;;;2.83;1.60;;;13.80;99.90;;;;;;6243099;23;20401;-84
2023/03/23 04:52:47;;;;;;;2.67;1.98;;;13.80;99.90;;;;;;6240869;23;20423;-85
2023/03/23 04:55:14;;;;;;;2.20;1.80;;;13.80;99.90;;;;;;6242504;23;20171;-86
2023/03/23 04:57:40;;;;;;;1.40;1.30;;;13.90;99.90;;;;;;6233919;23;20472;-85
2023/03/23 05:00:12;;;;;;;2.30;1.23;;;13.90;99.90;;;;;;6242179;23;20458;-85
2023/03/23 05:02:39;;;;;;;1.37;1.00;;;13.80;99.90;;;;;;6235492;23;20382;-85
2023/03/23 05:05:09;;;;;;;1.50;1.27;;;13.80;99.90;;;;;;6234966;23;21014;-85
2023/03/23 05:07:36;;;;;;;3.05;1.30;;;13.80;99.90;;;;;;6237387;23;20129;-85
2023/03/23 05:10:02;;;;;;;1.43;1.33;;;13.80;99.90;;;;;;6235406;23;20661;-84
2023/03/23 05:12:28;;;;;;;3.40;2.17;;;13.90;99.90;;;;;;6242624;23;20383;-83
2023/03/23 05:14:53;;;;;;;1.77;1.50;;;13.80;99.90;;;;;;6245118;23;20383;-83
2023/03/23 05:17:19;;;;;;;2.27;1.73;;;13.80;99.90;;;;;;6238399;23;20478;-85
2023/03/23 05:19:47;;;;;;;2.10;1.50;;;13.70;99.90;;;;;;6238146;23;20168;-85
2023/03/23 05:22:14;;;;;;;2.15;1.75;;;13.80;99.90;;;;;;6236873;23;20532;-85
2023/03/23 05:24:40;;;;;;;3.25;1.50;;;13.80;99.90;;;;;;6235976;23;20133;-84
2023/03/23 05:27:07;;;;;;;2.67;1.37;;;13.80;99.90;;;;;;6238210;23;20152;-84
2023/03/23 05:29:35;;;;;;;3.33;1.90;;;13.80;99.90;;;;;;6240829;23;20426;-84
2023/03/23 05:32:03;;;;;;;1.53;1.40;;;13.80;99.90;;;;;;6246052;23;20400;-84
2023/03/23 05:34:32;;;;;;;2.40;1.50;;;13.80;99.90;;;;;;6237560;23;20407;-84
2023/03/23 05:37:01;;;;;;;2.63;1.33;;;13.80;99.90;;;;;;6236271;23;20423;-84
2023/03/23 05:39:27;;;;;;;1.80;1.20;;;13.80;99.90;;;;;;6237797;23;20474;-84
2023/03/23 05:41:54;;;;;;;3.57;1.37;;;13.70;99.90;;;;;;6236445;23;20371;-85
2023/03/23 05:44:19;;;;;;;2.87;2.07;;;13.70;99.90;;;;;;6237984;23;20367;-85
2023/03/23 05:46:45;;;;;;;2.40;1.00;;;13.70;99.90;;;;;;6237450;23;20423;-84
2023/03/23 05:49:11;;;;;;;1.40;1.30;;;13.80;99.90;;;;;;6241698;23;20398;-85
2023/03/23 05:51:37;;;;;;;1.47;1.37;;;13.80;99.90;;;;;;6238941;23;21234;-84
2023/03/23 05:54:03;;;;;;;1.83;1.27;;;13.80;99.90;;;;;;6237519;23;20253;-85
2023/03/23 05:56:30;;;;;;;6.37;1.57;;;13.80;99.90;;;;;;6237191;23;20182;-85
2023/03/23 05:58:56;;;;;;;4.43;1.53;;;13.70;99.90;;;;;;6248061;23;20466;-84
2023/03/23 06:01:22;;;;;;;1.60;1.20;;;13.70;99.90;;;;;;6251438;22;20708;-84
2023/03/23 06:03:51;;;;;;;3.43;2.00;;;13.70;99.90;;;;;;6237983;23;20368;-84
2023/03/23 06:06:17;;;;;;;2.40;1.40;;;13.70;99.90;;;;;;6235094;23;20417;-84
2023/03/23 06:08:44;;;;;;;1.67;1.37;;;13.70;99.90;;;;;;6234562;23;20494;-84
2023/03/23 06:11:10;;;;;;;1.97;1.70;;;13.80;99.90;;;;;;6237753;23;20449;-84
2023/03/23 06:13:36;;;;;;;1.87;1.30;;;13.80;99.90;;;;;;6237369;23;20379;-83
2023/03/23 06:16:02;;;;;;;2.40;1.70;;;13.90;99.90;;;;;;6238444;23;20418;-84
2023/03/23 06:18:28;;;;;;;4.57;1.87;;;13.90;99.90;;;;;;6238399;23;20423;-83
2023/03/23 06:20:53;;;;;;;3.00;1.20;;;14.00;99.90;;;;;;6239869;23;20180;-83
2023/03/23 06:23:20;;;;;;;2.73;1.27;;;14.10;99.90;;;;;;6238957;23;20715;-83
2023/03/23 06:25:45;;;;;;;1.70;1.33;;;14.00;99.90;;;;;;6238719;23;20386;-83
2023/03/23 06:28:11;;;;;;;2.73;1.43;;;13.90;99.90;;;;;;6237467;23;20453;-83
2023/03/23 06:30:37;;;;;;;2.97;1.73;;;13.90;99.90;;;;;;6238478;23;20259;-84
2023/03/23 06:33:05;;;;;;;4.20;2.00;;;14.00;99.90;;;;;;6233498;23;20255;-84
2023/03/23 06:35:33;;;;;;;2.70;1.73;;;14.10;99.90;;;;;;6247564;23;20384;-82
2023/03/23 06:38:01;;;;;;;3.03;1.63;;;14.20;99.90;;;;;;6240080;23;20426;-84
2023/03/23 06:40:28;;;;;;;1.53;1.43;;;14.10;99.90;;;;;;6235186;23;20404;-83
2023/03/23 06:42:54;;;;;;;2.60;1.40;;;14.10;99.90;;;;;;6233897;23;20372;-84
2023/03/23 06:45:19;;;;;;;2.10;1.53;;;14.20;99.90;;;;;;6237276;23;20360;-84
2023/03/23 06:47:48;;;;;;;2.50;1.70;;;14.30;99.90;;;;;;6236901;23;20677;-84
2023/03/23 06:50:15;;;;;;;2.20;1.30;;;14.50;99.90;;;;;;6238321;23;20210;-84
2023/03/23 06:52:41;;;;;;;1.60;1.47;;;14.70;99.90;;;;;;6235076;23;20881;-84
2023/03/23 06:55:07;;;;;;;3.50;1.80;;;14.70;99.90;;;;;;6232089;23;20461;-83
2023/03/23 06:57:32;;;;;;;1.90;1.57;;;14.80;99.90;;;;;;6236144;23;20984;-84
2023/03/23 06:59:58;;;;;;;2.00;1.27;;;14.70;99.90;;;;;;6248032;23;20434;-84
2023/03/23 07:02:23;;;;;;;7.90;1.67;;;14.50;99.90;;;;;;6246651;23;20938;-84
2023/03/23 07:04:49;;;;;;;2.90;1.80;;;14.50;99.90;;;;;;6241281;23;20169;-84
2023/03/23 07:07:18;;;;;;;7.47;2.50;;;14.40;99.90;;;;;;6239983;23;20579;-83
2023/03/23 07:09:44;;;;;;;2.40;1.33;;;14.40;99.90;;;;;;6247564;23;20168;-83
2023/03/23 07:12:09;;;;;;;3.03;1.70;;;14.30;99.90;;;;;;6242139;23;20429;-83
2023/03/23 07:14:35;;;;;;;1.83;1.50;;;14.30;99.90;;;;;;6238689;23;20447;-85
2023/03/23 07:17:03;;;;;;;11.70;5.80;;;14.20;99.90;;;;;;6230784;23;20942;-84
2023/03/23 07:19:28;;;;;;;3.33;2.43;;;14.20;99.90;;;;;;6238712;23;20988;-83
2023/03/23 07:21:54;;;;;;;3.40;2.20;;;14.20;99.90;;;;;;6241244;23;20379;-83
2023/03/23 07:24:20;;;;;;;3.50;1.50;;;14.20;99.90;;;;;;6235145;23;20176;-82
2023/03/23 07:26:45;;;;;;;3.90;1.70;;;14.20;99.90;;;;;;6234134;23;20160;-84
2023/03/23 07:29:11;;;;;;;2.40;1.43;;;14.20;99.90;;;;;;6239876;23;20379;-83
2023/03/23 07:31:36;;;;;;;3.57;1.70;;;14.20;99.90;;;;;;6235015;23;20992;-83
2023/03/23 07:34:02;;;;;;;2.93;1.53;;;14.30;99.90;;;;;;6235190;23;20630;-82
2023/03/23 07:36:28;;;;;;;3.40;1.80;;;14.40;99.90;;;;;;6249929;23;20894;-81
2023/03/23 07:38:54;;;;;;;2.50;2.00;;;14.40;99.90;;;;;;6250018;23;21047;-81
2023/03/23 07:41:20;;;;;;;2.70;1.43;;;14.50;99.90;;;;;;6249516;23;20372;-81
2023/03/23 07:43:46;;;;;;;2.13;1.60;;;14.70;99.90;;;;;;6239035;23;21193;-83
2023/03/23 07:46:12;;;;;;;5.57;2.20;;;14.90;99.90;;;;;;6240193;23;20398;-83
2023/03/23 07:48:38;;;;;;;2.20;1.97;;;15.20;99.90;;;;;;6242408;23;20144;-83
2023/03/23 07:51:05;;;;;;;3.10;1.93;;;15.20;99.90;;;;;;6238682;23;20466;-83
2023/03/23 07:53:30;;;;;;;5.50;1.80;;;15.30;99.90;;;;;;6254859;23;20425;-82
2023/03/23 07:55:56;;;;;;;1.77;1.60;;;15.40;99.90;;;;;;6248270;23;20855;-82
2023/03/23 07:58:22;;;;;;;2.70;1.60;;;15.20;99.90;;;;;;6244665;23;20250;-82
2023/03/23 08:00:48;;;;;;;3.97;1.50;;;15.20;99.90;;;;;;6244656;23;20358;-83
2023/03/23 08:03:15;;;;;;;3.30;2.10;;;15.10;99.90;;;;;;6240150;23;20144;-82
2023/03/23 08:05:42;;;;;;;4.17;1.80;;;15.00;99.90;;;;;;6237998;23;20429;-82
2023/03/23 08:08:09;;;;;;;2.10;1.80;;;15.00;99.90;;;;;;6238037;23;20359;-83
2023/03/23 08:10:35;;;;;;;5.03;2.43;;;15.30;99.90;;;;;;6239041;23;20395;-85
2023/03/23 08:13:01;;;;;;;3.80;2.00;;;15.50;99.90;;;;;;6235010;23;20387;-84
2023/03/23 08:15:28;;;;;;;4.77;2.30;;;15.60;99.90;;;;;;6237972;23;20497;-85
2023/03/23 08:17:54;;;;;;;4.57;1.97;;;15.60;99.90;;;;;;6236396;23;20427;-84
2023/03/23 08:20:20;;;;;;;5.47;3.43;;;15.10;99.90;;;;;;6236357;23;20716;-84
2023/03/23 08:22:52;;;;;;;5.27;2.70;;;15.10;99.90;;;;;;6242930;23;20145;-85
2023/03/23 08:25:19;;;;;;;3.70;2.63;;;14.60;99.90;;;;;;6239538;23;20754;-84
2023/03/23 08:27:44;;;;;;;6.47;2.50;;;14.50;99.90;;;;;;6237800;23;20474;-82
2023/03/23 08:30:15;;;;;;;4.03;2.60;;;14.30;99.90;;;;;;6235064;23;20423;-83
2023/03/23 08:32:41;;;;;;;6.90;2.10;;;14.00;99.90;;;;;;6232723;23;20168;-82
2023/03/23 08:35:09;;;;;;;3.17;1.43;;;14.20;99.90;;;;;;6207130;23;20499;-84
2023/03/23 08:37:35;;;;;;;3.33;1.77;;;14.00;99.90;;;;;;6230991;23;20247;-82
2023/03/23 08:40:07;;;;;;;4.47;2.47;;;14.10;99.90;;;;;;6208705;23;21114;-84
2023/03/23 08:42:33;;;;;;;4.93;2.80;;;14.20;99.90;;;;;;6207363;23;20372;-82
2023/03/23 08:44:58;;;;;;;2.97;2.13;;;14.10;99.90;;;;;;6233699;23;20418;-81
2023/03/23 08:47:25;;;;;;;4.13;1.97;;;14.00;99.90;;;;;;6227954;23;20434;-83
2023/03/23 08:49:52;;;;;;;7.40;2.53;;;13.90;99.90;;;;;;6207369;23;20532;-82
2023/03/23 08:52:19;;;;;;;3.00;2.00;;;;;;;;;;6203384;23;20935;-82
2023/03/23 08:54:46;;;;;;;6.00;2.10;;;14.10;99.90;;;;;;6206598;23;20145;-82
2023/03/23 08:57:14;;;;;;;4.60;2.60;;;14.20;99.90;;;;;;6229348;23;20522;-82
2023/03/23 08:59:40;;;;;;;3.77;1.83;;;14.40;99.90;;;;;;6233197;23;20742;-82
2023/03/23 09:02:06;;;;;;;4.57;2.40;;;14.40;99.90;;;;;;6232991;23;20379;-85
2023/03/23 09:04:32;;;;;;;5.07;2.80;;;14.70;99.90;;;;;;6229680;23;20371;-83
2023/03/23 09:06:57;;;;;;;2.67;2.20;;;15.10;99.90;;;;;;6231799;23;20375;-83
2023/03/23 09:09:23;;;;;;;2.40;2.20;;;15.30;99.90;;;;;;6234283;23;20255;-82
2023/03/23 09:11:49;;;;;;;2.70;1.60;;;15.30;99.90;;;;;;6217534;23;20159;-82
2023/03/23 09:14:15;;;;;;;3.30;2.70;;;15.30;99.90;;;;;;6244897;23;20156;-83
2023/03/23 09:16:41;;;;;;;2.00;1.80;;;15.40;99.90;;;;;;6231943;23;20781;-83
2023/03/23 09:19:08;;;;;;;3.40;1.70;;;15.60;99.90;;;;;;6204682;23;20382;-83
2023/03/23 09:21:34;;;;;;;4.47;1.80;;;15.30;99.90;;;;;;6208933;23;20543;-82
2023/03/23 09:24:01;;;;;;;2.37;1.93;;;15.20;99.90;;;;;;6240920;23;20379;-83
2023/03/23 09:26:27;;;;;;;2.07;1.87;;;14.80;99.90;;;;;;6236680;23;20144;-83
2023/03/23 09:28:53;;;;;;;3.83;1.87;;;14.40;99.90;;;;;;6228289;23;20411;-82
2023/03/23 09:31:22;;;;;;;1.90;1.10;;;14.30;99.90;;;;;;6235705;23;20375;-83
2023/03/23 09:33:51;;;;;;;2.93;1.57;;;14.50;99.90;;;;;;6240798;22;20785;-82
2023/03/23 09:36:21;;;;;;;1.80;1.50;;;14.20;99.90;;;;;;6244351;23;20690;-84
2023/03/23 09:38:48;;;;;;;2.80;1.93;;;14.20;99.90;;;;;;6234344;23;20484;-83
2023/03/23 09:41:45;;;;;;;1.90;1.50;;;14.30;99.90;;;;;;6237821;23;20391;-82
2023/03/23 09:44:30;;;;;;;25.27;3.50;;;14.20;99.90;;;;;;6231715;23;20383;-81
2023/03/23 09:47:06;;;;;;;3.03;1.67;;;14.30;99.90;;;;;;6216067;22;20371;-82
2023/03/23 09:49:42;;;;;;;2.63;1.60;;;14.00;99.90;;;;;;6233423;23;20393;-84
2023/03/23 09:52:16;;;;;;;3.40;1.90;;;13.80;99.90;;;;;;6232292;23;20740;-83
2023/03/23 09:54:46;;;;;;;4.60;1.47;;;13.70;99.90;;;;;;6231721;23;20956;-81
2023/03/23 09:57:37;;;;;;;4.20;1.73;;;13.70;99.90;;;;;;6230019;23;20416;-84
2023/03/23 10:00:14;;;;;;;2.10;1.50;;;13.90;99.90;;;;;;6236871;23;20399;-82
2023/03/23 10:03:02;;;;;;;2.47;1.47;;;14.00;99.90;;;;;;6235447;23;20355;-85
2023/03/23 10:05:33;;;;;;;1.57;1.30;;;13.70;99.90;;;;;;6235075;23;20383;-83
2023/03/23 10:08:01;;;;;;;1.80;1.53;;;13.50;99.90;;;;;;6234193;23;20387;-83
2023/03/23 10:10:37;;;;;;;2.30;1.47;;;13.60;99.90;;;;;;6236174;23;20449;-83
2023/03/23 10:13:16;;;;;;;2.40;1.63;;;13.60;99.90;;;;;;6229376;23;20382;-82
2023/03/23 10:15:43;;;;;;;2.00;1.70;;;13.60;99.90;;;;;;6233349;23;20390;-83
2023/03/23 10:18:31;;;;;;;2.20;1.47;;;13.70;99.90;;;;;;6230672;23;20509;-83
2023/03/23 10:20:59;;;;;;;2.17;1.67;;;13.70;99.90;;;;;;6237624;22;21192;-82
2023/03/23 10:23:53;;;;;;;2.30;1.77;;;14.00;99.90;;;;;;6225395;23;20375;-81
2023/03/23 10:26:31;;;;;;;3.23;2.00;;;14.30;99.90;;;;;;6230648;23;20387;-83
2023/03/23 10:29:21;;;;;;;1.60;1.30;;;14.90;99.90;;;;;;6234864;23;20355;-83
2023/03/23 10:31:52;;;;;;;3.10;2.07;;;15.50;99.90;;;;;;6230553;23;20386;-84
2023/03/23 10:34:27;;;;;;;1.40;1.30;;;15.60;99.90;;;;;;6230934;23;20386;-84
2023/03/23 10:37:19;;;;;;;1.37;1.13;;;15.50;99.90;;;;;;6205154;23;20579;-83
2023/03/23 10:40:00;;;;;;;1.43;1.20;;;15.50;99.90;;;;;;6207082;23;20410;-82
2023/03/23 10:42:32;;;;;;;2.43;1.70;;;15.90;99.90;;;;;;6212677;23;20374;-81
2023/03/23 10:45:00;;;;;;;2.80;1.50;;;15.40;99.90;;;;;;6211127;23;20414;-82
2023/03/23 10:47:28;;;;;;;3.70;1.70;;;14.70;99.90;;;;;;6210355;23;20375;-80
2023/03/23 10:49:58;;;;;;;2.30;1.40;;;14.80;99.90;;;;;;6231177;23;21003;-82
2023/03/23 10:52:39;;;;;;;4.20;1.47;;;15.10;99.90;;;;;;6235144;23;20360;-82
2023/03/23 10:55:09;;;;;;;1.77;1.27;;;15.10;99.90;;;;;;6206857;23;20799;-81
2023/03/23 10:57:40;;;;;;;1.40;1.30;;;14.80;99.90;;;;;;6211953;23;20513;-83
2023/03/23 11:00:18;;;;;;;3.80;1.20;;;15.00;99.90;;;;;;6239007;23;20433;-82
2023/03/23 11:03:01;;;;;;;1.90;1.47;;;15.20;99.90;;;;;;6211366;23;20375;-84
2023/03/23 11:05:37;;;;;;;4.70;1.40;;;15.30;99.90;;;;;;6206914;23;20389;-81
2023/03/23 11:08:03;;;;;;;4.10;0.97;;;15.50;99.90;;;;;;6233438;23;20359;-82
2023/03/23 11:10:39;;;;;;;1.97;1.47;;;15.10;99.90;;;;;;6206055;23;20399;-85
2023/03/23 11:13:11;;;;;;;2.00;1.47;;;15.10;99.90;;;;;;6207946;23;20903;-84
2023/03/23 11:15:39;;;;;;;4.03;1.63;;;15.30;99.90;;;;;;6209412;23;20391;-84
2023/03/23 11:18:10;;;;;;;2.13;1.10;;;15.30;99.90;;;;;;6210443;23;20427;-84
2023/03/23 11:20:39;;;;;;;2.80;1.63;;;15.20;99.90;;;;;;6211007;23;20544;-82
2023/03/23 11:23:30;;;;;;;2.23;1.80;;;15.40;99.90;;;;;;6230265;23;20427;-81
2023/03/23 11:26:20;;;;;;;2.73;1.40;;;15.50;99.90;;;;;;6251819;23;20466;-83
2023/03/23 11:28:58;;;;;;;1.70;1.43;;;15.20;99.90;;;;;;6210351;23;20506;-83
2023/03/23 11:31:36;;;;;;;2.83;1.73;;;15.20;99.90;;;;;;6205316;23;20378;-83
2023/03/23 11:34:08;;;;;;;3.93;1.43;;;15.10;99.90;;;;;;6223200;23;20399;-83
2023/03/23 11:36:47;;;;;;;3.77;1.50;;;15.30;99.90;;;;;;6234491;23;20376;-83
2023/03/23 11:39:29;;;;;;;2.13;1.53;;;15.10;99.90;;;;;;6238287;22;20738;-83
2023/03/23 11:41:58;;;;;;;2.90;1.67;;;15.20;99.90;;;;;;6234969;23;20445;-83
2023/03/23 11:44:31;;;;;;;2.83;1.60;;;15.70;99.90;;;;;;6232843;23;20382;-82
2023/03/23 11:47:15;;;;;;;2.03;1.50;;;15.60;99.90;;;;;;6233677;23;20368;-82
2023/03/23 11:50:12;;;;;;;5.43;1.83;;;15.50;99.90;;;;;;6233663;23;20418;-82
2023/03/23 11:52:59;;;;;;;2.03;1.40;;;15.80;99.90;;;;;;6231693;23;20453;-82
2023/03/23 11:55:55;;;;;;;2.30;1.60;;;15.80;99.90;;;;;;6240274;23;20352;-82
2023/03/23 11:58:21;;;;;;;3.70;1.73;;;16.00;99.90;;;;;;6237946;22;20731;-83
2023/03/23 12:00:58;;;;;;;1.73;1.63;;;16.10;99.90;;;;;;6238077;23;20935;-82
2023/03/23 12:03:41;;;;;;;1.23;1.13;;;15.70;99.90;;;;;;6237260;23;20371;-83
2023/03/23 12:06:20;;;;;;;3.00;1.53;;;16.00;99.90;;;;;;6237813;23;20387;-83
2023/03/23 12:09:31;;;;;;;3.77;1.87;;;15.80;99.90;;;;;;6238644;23;20387;-83
2023/03/23 12:12:40;;;;;;;2.33;1.50;;;15.80;99.90;;;;;;6244008;22;20375;-83
2023/03/23 12:15:19;;;;;;;2.30;1.63;;;15.90;99.90;;;;;;6233802;23;20493;-83
2023/03/23 12:18:17;;;;;;;1.80;1.40;;;16.10;99.90;;;;;;6234284;23;20413;-82
2023/03/23 12:20:54;;;;;;;2.40;1.43;;;15.60;99.90;;;;;;6235874;23;20415;-83
2023/03/23 12:23:32;;;;;;;2.77;1.67;;;15.60;99.90;;;;;;6235064;23;20458;-83
2023/03/23 12:26:22;;;;;;;4.87;2.00;;;15.80;99.90;;;;;;6233848;23;20446;-82
2023/03/23 12:28:55;;;;;;;2.20;1.57;;;15.80;99.90;;;;;;6234085;22;20392;-84
2023/03/23 12:31:26;;;;;;;2.00;1.53;;;15.20;99.90;;;;;;6237393;23;20569;-82
2023/03/23 12:34:26;;;;;;;2.50;1.90;;;15.30;99.90;;;;;;6239188;23;20483;-83
2023/03/23 12:37:18;;;;;;;4.10;2.40;;;15.00;99.90;;;;;;6238192;23;20485;-82
2023/03/23 12:40:12;;;;;;;2.97;2.00;;;15.40;99.90;;;;;;6242001;23;20387;-83
2023/03/23 12:42:40;;;;;;;2.73;2.07;;;16.00;99.90;;;;;;6246844;23;20375;-83
2023/03/23 12:45:38;;;;;;;5.63;2.93;;;16.20;99.90;;;;;;6241934;23;20375;-83
2023/03/23 12:48:13;;;;;;;7.17;3.27;;;16.50;99.90;;;;;;6238743;22;20429;-83
2023/03/23 12:50:48;;;;;;;4.23;2.30;;;16.70;99.90;;;;;;6242499;23;20422;-85
2023/03/23 12:53:26;;;;;;;6.33;4.00;;;16.40;99.90;;;;;;6239775;23;20363;-82
2023/03/23 12:56:17;;;;;;;8.43;2.90;;;16.90;99.90;;;;;;6239683;23;20447;-83
2023/03/23 12:58:49;;;;;;;2.83;2.00;;;17.10;99.90;;;;;;6241409;23;20449;-82
2023/03/23 13:01:23;;;;;;;3.07;2.23;;;16.70;99.90;;;;;;6243067;23;20402;-83
2023/03/23 13:04:01;;;;;;;3.80;2.27;;;16.50;99.90;;;;;;6238292;23;20428;-83
2023/03/23 13:06:41;;;;;;;3.07;2.33;;;16.40;99.90;;;;;;6238182;23;20885;-83